sensor_id;sensor_type;location;lat;lon;timestamp;pressure;altitude;pressure_sealevel;temperature;humidity
69405;BME280;57084;52.046;5.632;2022-07-12T00:01:02;102359.44;;;22.27;54.14
69405;BME280;57084;52.046;5.632;2022-07-12T00:03:27;102357.94;;;22.22;54.15
69405;BME280;57084;52.046;5.632;2022-07-12T00:05:53;102353.56;;;22.25;54.04
69405;BME280;57084;52.046;5.632;2022-07-12T00:08:19;102356.75;;;22.23;54.16
69405;BME280;57084;52.046;5.632;2022-07-12T00:10:44;102359.91;;;22.22;54.17
69405;BME280;57084;52.046;5.632;2022-07-12T00:13:09;102358.84;;;22.16;54.17
69405;BME280;57084;52.046;5.632;2022-07-12T00:15:36;102355.31;;;22.15;54.31
69405;BME280;57084;52.046;5.632;2022-07-12T00:18:01;102357.31;;;22.15;54.33
69405;BME280;57084;52.046;5.632;2022-07-12T00:20:26;102354.97;;;22.13;54.35
69405;BME280;57084;52.046;5.632;2022-07-12T00:22:52;102343.97;;;22.13;54.36
69405;BME280;57084;52.046;5.632;2022-07-12T00:25:17;102350.31;;;22.10;54.32
69405;BME280;57084;52.046;5.632;2022-07-12T00:27:42;102353.13;;;22.06;54.37
69405;BME280;57084;52.046;5.632;2022-07-12T00:30:08;102348.13;;;22.01;54.29
69405;BME280;57084;52.046;5.632;2022-07-12T00:32:33;102354.00;;;22.00;54.67
69405;BME280;57084;52.046;5.632;2022-07-12T00:34:59;102347.03;;;21.95;54.76
69405;BME280;57084;52.046;5.632;2022-07-12T00:37:24;102343.09;;;21.96;54.60
69405;BME280;57084;52.046;5.632;2022-07-12T00:39:50;102343.94;;;21.93;54.62
69405;BME280;57084;52.046;5.632;2022-07-12T00:42:16;102349.84;;;21.91;54.54
69405;BME280;57084;52.046;5.632;2022-07-12T00:44:41;102348.25;;;21.94;54.70
69405;BME280;57084;52.046;5.632;2022-07-12T00:47:06;102348.66;;;21.92;54.75
69405;BME280;57084;52.046;5.632;2022-07-12T00:49:32;102351.00;;;21.94;54.82
69405;BME280;57084;52.046;5.632;2022-07-12T00:51:57;102345.19;;;21.88;54.94
69405;BME280;57084;52.046;5.632;2022-07-12T00:54:23;102347.56;;;21.86;54.96
69405;BME280;57084;52.046;5.632;2022-07-12T00:56:48;102353.44;;;21.88;54.91
69405;BME280;57084;52.046;5.632;2022-07-12T00:59:14;102348.75;;;21.85;55.05
69405;BME280;57084;52.046;5.632;2022-07-12T01:01:41;102357.41;;;21.84;55.01
69405;BME280;57084;52.046;5.632;2022-07-12T01:04:06;102351.94;;;21.84;55.32
69405;BME280;57084;52.046;5.632;2022-07-12T01:06:32;102363.38;;;21.79;55.28
69405;BME280;57084;52.046;5.632;2022-07-12T01:08:58;102361.47;;;21.75;55.17
69405;BME280;57084;52.046;5.632;2022-07-12T01:11:25;102359.16;;;21.74;55.32
69405;BME280;57084;52.046;5.632;2022-07-12T01:13:51;102368.56;;;21.73;54.94
69405;BME280;57084;52.046;5.632;2022-07-12T01:16:18;102376.06;;;21.69;55.44
69405;BME280;57084;52.046;5.632;2022-07-12T01:18:45;102370.66;;;21.65;55.34
69405;BME280;57084;52.046;5.632;2022-07-12T01:21:12;102376.19;;;21.62;55.44
69405;BME280;57084;52.046;5.632;2022-07-12T01:23:41;102382.47;;;21.58;55.28
69405;BME280;57084;52.046;5.632;2022-07-12T01:26:06;102380.94;;;21.54;55.51
69405;BME280;57084;52.046;5.632;2022-07-12T01:28:32;102381.38;;;21.52;55.81
69405;BME280;57084;52.046;5.632;2022-07-12T01:30:58;102387.28;;;21.51;55.71
69405;BME280;57084;52.046;5.632;2022-07-12T01:33:25;102387.66;;;21.49;55.84
69405;BME280;57084;52.046;5.632;2022-07-12T01:35:58;102393.16;;;21.49;55.63
69405;BME280;57084;52.046;5.632;2022-07-12T01:38:24;102397.56;;;21.43;55.85
69405;BME280;57084;52.046;5.632;2022-07-12T01:40:49;102393.25;;;21.42;55.91
69405;BME280;57084;52.046;5.632;2022-07-12T01:43:14;102397.66;;;21.36;55.72
69405;BME280;57084;52.046;5.632;2022-07-12T01:45:40;102405.91;;;21.32;55.70
69405;BME280;57084;52.046;5.632;2022-07-12T01:48:06;102403.63;;;21.27;55.81
69405;BME280;57084;52.046;5.632;2022-07-12T01:50:32;102402.91;;;21.23;55.57
69405;BME280;57084;52.046;5.632;2022-07-12T01:52:57;102399.81;;;21.21;55.54
69405;BME280;57084;52.046;5.632;2022-07-12T01:55:23;102393.59;;;21.17;56.04
69405;BME280;57084;52.046;5.632;2022-07-12T01:57:48;102392.03;;;21.16;56.00
69405;BME280;57084;52.046;5.632;2022-07-12T02:00:14;102385.78;;;21.15;55.68
69405;BME280;57084;52.046;5.632;2022-07-12T02:02:40;102384.66;;;21.12;55.82
69405;BME280;57084;52.046;5.632;2022-07-12T02:05:05;102388.94;;;21.13;55.41
69405;BME280;57084;52.046;5.632;2022-07-12T02:07:32;102376.47;;;21.09;55.80
69405;BME280;57084;52.046;5.632;2022-07-12T02:09:57;102380.03;;;21.06;55.17
69405;BME280;57084;52.046;5.632;2022-07-12T02:12:23;102377.69;;;21.04;55.51
69405;BME280;57084;52.046;5.632;2022-07-12T02:14:48;102373.81;;;21.02;55.44
69405;BME280;57084;52.046;5.632;2022-07-12T02:17:14;102367.56;;;21.01;55.66
69405;BME280;57084;52.046;5.632;2022-07-12T02:19:39;102367.97;;;21.00;55.87
69405;BME280;57084;52.046;5.632;2022-07-12T02:22:04;102363.63;;;21.02;55.64
69405;BME280;57084;52.046;5.632;2022-07-12T02:24:30;102364.47;;;20.99;55.27
69405;BME280;57084;52.046;5.632;2022-07-12T02:26:55;102360.97;;;20.95;55.26
69405;BME280;57084;52.046;5.632;2022-07-12T02:29:20;102361.44;;;20.90;55.43
69405;BME280;57084;52.046;5.632;2022-07-12T02:31:46;102370.06;;;20.88;55.75
69405;BME280;57084;52.046;5.632;2022-07-12T02:34:11;102367.75;;;20.83;55.90
69405;BME280;57084;52.046;5.632;2022-07-12T02:36:36;102368.94;;;20.82;55.48
69405;BME280;57084;52.046;5.632;2022-07-12T02:39:03;102367.47;;;20.77;55.96
69405;BME280;57084;52.046;5.632;2022-07-12T02:41:32;102372.94;;;20.77;55.96
69405;BME280;57084;52.046;5.632;2022-07-12T02:43:59;102372.97;;;20.74;55.89
69405;BME280;57084;52.046;5.632;2022-07-12T02:46:24;102372.19;;;20.70;56.21
69405;BME280;57084;52.046;5.632;2022-07-12T02:48:49;102366.72;;;20.70;56.09
69405;BME280;57084;52.046;5.632;2022-07-12T02:51:15;102360.09;;;20.67;55.75
69405;BME280;57084;52.046;5.632;2022-07-12T02:53:40;102363.25;;;20.65;56.13
69405;BME280;57084;52.046;5.632;2022-07-12T02:56:05;102361.28;;;20.66;55.97
69405;BME280;57084;52.046;5.632;2022-07-12T02:58:31;102366.75;;;20.66;55.95
69405;BME280;57084;52.046;5.632;2022-07-12T03:00:56;102362.13;;;20.63;55.35
69405;BME280;57084;52.046;5.632;2022-07-12T03:03:22;102367.22;;;20.61;55.43
69405;BME280;57084;52.046;5.632;2022-07-12T03:05:47;102371.53;;;20.58;55.87
69405;BME280;57084;52.046;5.632;2022-07-12T03:08:13;102371.16;;;20.56;56.02
69405;BME280;57084;52.046;5.632;2022-07-12T03:10:39;102368.88;;;20.51;56.12
69405;BME280;57084;52.046;5.632;2022-07-12T03:13:06;102365.75;;;20.49;56.31
69405;BME280;57084;52.046;5.632;2022-07-12T03:15:31;102365.34;;;20.50;56.09
69405;BME280;57084;52.046;5.632;2022-07-12T03:17:58;102365.00;;;20.48;56.04
69405;BME280;57084;52.046;5.632;2022-07-12T03:20:24;102366.53;;;20.49;55.81
69405;BME280;57084;52.046;5.632;2022-07-12T03:22:50;102356.81;;;20.45;56.00
69405;BME280;57084;52.046;5.632;2022-07-12T03:25:17;102354.09;;;20.45;55.99
69405;BME280;57084;52.046;5.632;2022-07-12T03:27:42;102353.31;;;20.44;56.06
69405;BME280;57084;52.046;5.632;2022-07-12T03:30:08;102354.47;;;20.43;55.76
69405;BME280;57084;52.046;5.632;2022-07-12T03:32:34;102352.19;;;20.38;55.96
69405;BME280;57084;52.046;5.632;2022-07-12T03:35:00;102347.91;;;20.37;56.02
69405;BME280;57084;52.046;5.632;2022-07-12T03:37:26;102355.72;;;20.35;55.76
69405;BME280;57084;52.046;5.632;2022-07-12T03:39:51;102347.56;;;20.31;55.67
69405;BME280;57084;52.046;5.632;2022-07-12T03:42:18;102350.69;;;20.30;55.67
69405;BME280;57084;52.046;5.632;2022-07-12T03:44:43;102353.06;;;20.28;55.86
69405;BME280;57084;52.046;5.632;2022-07-12T03:47:09;102357.00;;;20.27;55.73
69405;BME280;57084;52.046;5.632;2022-07-12T03:49:34;102346.81;;;20.27;55.90
69405;BME280;57084;52.046;5.632;2022-07-12T03:51:59;102353.88;;;20.25;55.93
69405;BME280;57084;52.046;5.632;2022-07-12T03:54:24;102350.41;;;20.21;55.70
69405;BME280;57084;52.046;5.632;2022-07-12T03:56:50;102350.00;;;20.22;55.97
69405;BME280;57084;52.046;5.632;2022-07-12T03:59:34;102350.41;;;20.21;55.73
69405;BME280;57084;52.046;5.632;2022-07-12T04:01:59;102353.13;;;20.21;55.86
69405;BME280;57084;52.046;5.632;2022-07-12T04:04:26;102353.13;;;20.21;55.65
69405;BME280;57084;52.046;5.632;2022-07-12T04:06:51;102362.94;;;20.18;55.82
69405;BME280;57084;52.046;5.632;2022-07-12T04:09:16;102366.50;;;20.15;56.16
69405;BME280;57084;52.046;5.632;2022-07-12T04:11:42;102367.25;;;20.15;56.05
69405;BME280;57084;52.046;5.632;2022-07-12T04:14:07;102370.44;;;20.10;56.42
69405;BME280;57084;52.046;5.632;2022-07-12T04:16:32;102368.47;;;20.11;56.52
69405;BME280;57084;52.046;5.632;2022-07-12T04:18:58;102373.53;;;20.12;56.56
69405;BME280;57084;52.046;5.632;2022-07-12T04:21:23;102372.75;;;20.12;56.35
69405;BME280;57084;52.046;5.632;2022-07-12T04:23:48;102375.06;;;20.13;56.68
69405;BME280;57084;52.046;5.632;2022-07-12T04:26:14;102382.50;;;20.13;56.54
69405;BME280;57084;52.046;5.632;2022-07-12T04:28:39;102391.88;;;20.15;56.49
69405;BME280;57084;52.046;5.632;2022-07-12T04:31:06;102393.44;;;20.16;56.48
69405;BME280;57084;52.046;5.632;2022-07-12T04:33:32;102381.34;;;20.14;56.53
69405;BME280;57084;52.046;5.632;2022-07-12T04:35:57;102377.78;;;20.17;56.72
69405;BME280;57084;52.046;5.632;2022-07-12T04:38:23;102376.97;;;20.20;56.76
69405;BME280;57084;52.046;5.632;2022-07-12T04:40:48;102366.41;;;20.22;56.72
69405;BME280;57084;52.046;5.632;2022-07-12T04:43:13;102370.34;;;20.21;56.64
69405;BME280;57084;52.046;5.632;2022-07-12T04:45:38;102374.22;;;20.24;56.69
69405;BME280;57084;52.046;5.632;2022-07-12T04:48:04;102367.56;;;20.25;56.75
69405;BME280;57084;52.046;5.632;2022-07-12T04:50:29;102374.97;;;20.24;56.95
69405;BME280;57084;52.046;5.632;2022-07-12T04:52:54;102371.47;;;20.24;57.17
69405;BME280;57084;52.046;5.632;2022-07-12T04:55:20;102380.84;;;20.26;57.35
69405;BME280;57084;52.046;5.632;2022-07-12T04:57:45;102381.63;;;20.27;57.26
69405;BME280;57084;52.046;5.632;2022-07-12T05:00:11;102382.78;;;20.29;57.36
69405;BME280;57084;52.046;5.632;2022-07-12T05:02:36;102383.91;;;20.32;57.37
69405;BME280;57084;52.046;5.632;2022-07-12T05:05:02;102387.03;;;20.34;57.73
69405;BME280;57084;52.046;5.632;2022-07-12T05:07:28;102380.34;;;20.35;57.65
69405;BME280;57084;52.046;5.632;2022-07-12T05:09:53;102385.41;;;20.40;57.61
69405;BME280;57084;52.046;5.632;2022-07-12T05:12:18;102389.28;;;20.43;57.67
69405;BME280;57084;52.046;5.632;2022-07-12T05:14:44;102399.81;;;20.44;57.55
69405;BME280;57084;52.046;5.632;2022-07-12T05:17:09;102400.19;;;20.46;57.53
69405;BME280;57084;52.046;5.632;2022-07-12T05:19:36;102405.22;;;20.52;57.80
69405;BME280;57084;52.046;5.632;2022-07-12T05:22:01;102415.75;;;20.53;57.81
69405;BME280;57084;52.046;5.632;2022-07-12T05:24:27;102409.09;;;20.54;58.10
69405;BME280;57084;52.046;5.632;2022-07-12T05:26:53;102418.88;;;20.55;58.20
69405;BME280;57084;52.046;5.632;2022-07-12T05:29:18;102420.41;;;20.60;58.09
69405;BME280;57084;52.046;5.632;2022-07-12T05:31:43;102418.38;;;20.64;58.05
69405;BME280;57084;52.046;5.632;2022-07-12T05:34:15;102412.50;;;20.69;57.90
69405;BME280;57084;52.046;5.632;2022-07-12T05:36:40;102426.91;;;20.77;58.15
69405;BME280;57084;52.046;5.632;2022-07-12T05:39:06;102437.38;;;20.86;57.97
69405;BME280;57084;52.046;5.632;2022-07-12T05:41:38;102433.75;;;20.96;57.59
69405;BME280;57084;52.046;5.632;2022-07-12T05:44:03;102441.84;;;21.07;57.76
69405;BME280;57084;52.046;5.632;2022-07-12T05:46:29;102443.69;;;21.17;57.63
69405;BME280;57084;52.046;5.632;2022-07-12T05:48:54;102443.56;;;21.28;56.80
69405;BME280;57084;52.046;5.632;2022-07-12T05:51:20;102449.66;;;21.39;57.11
69405;BME280;57084;52.046;5.632;2022-07-12T05:54:03;102446.03;;;21.50;57.03
69405;BME280;57084;52.046;5.632;2022-07-12T05:56:29;102448.28;;;21.58;56.97
69405;BME280;57084;52.046;5.632;2022-07-12T05:58:55;102446.56;;;21.68;57.29
69405;BME280;57084;52.046;5.632;2022-07-12T06:01:20;102445.66;;;21.79;56.91
69405;BME280;57084;52.046;5.632;2022-07-12T06:03:45;102447.88;;;21.87;57.05
69405;BME280;57084;52.046;5.632;2022-07-12T06:06:11;102447.34;;;21.96;56.88
69405;BME280;57084;52.046;5.632;2022-07-12T06:08:37;102452.28;;;22.08;56.88
69405;BME280;57084;52.046;5.632;2022-07-12T06:11:02;102452.50;;;22.18;56.98
69405;BME280;57084;52.046;5.632;2022-07-12T06:13:27;102453.94;;;22.26;56.82
69405;BME280;57084;52.046;5.632;2022-07-12T06:15:54;102446.44;;;22.30;56.59
69405;BME280;57084;52.046;5.632;2022-07-12T06:18:20;102441.59;;;22.38;56.86
69405;BME280;57084;52.046;5.632;2022-07-12T06:20:46;102443.88;;;22.43;56.62
69405;BME280;57084;52.046;5.632;2022-07-12T06:23:11;102441.38;;;22.52;56.97
69405;BME280;57084;52.046;5.632;2022-07-12T06:25:38;102444.81;;;22.57;56.54
69405;BME280;57084;52.046;5.632;2022-07-12T06:28:04;102436.88;;;22.62;56.50
69405;BME280;57084;52.046;5.632;2022-07-12T06:30:30;102434.34;;;22.71;56.39
69405;BME280;57084;52.046;5.632;2022-07-12T06:32:55;102441.19;;;22.83;56.05
69405;BME280;57084;52.046;5.632;2022-07-12T06:35:20;102441.41;;;22.93;55.72
69405;BME280;57084;52.046;5.632;2022-07-12T06:37:46;102437.75;;;22.99;55.72
69405;BME280;57084;52.046;5.632;2022-07-12T06:40:11;102437.59;;;23.07;55.92
69405;BME280;57084;52.046;5.632;2022-07-12T06:42:37;102435.44;;;23.18;55.44
69405;BME280;57084;52.046;5.632;2022-07-12T06:45:03;102427.81;;;23.26;55.13
69405;BME280;57084;52.046;5.632;2022-07-12T06:47:29;102437.81;;;23.36;54.96
69405;BME280;57084;52.046;5.632;2022-07-12T06:49:55;102436.38;;;23.48;54.85
69405;BME280;57084;52.046;5.632;2022-07-12T06:52:27;102438.81;;;23.62;54.83
69405;BME280;57084;52.046;5.632;2022-07-12T06:54:52;102433.13;;;23.70;54.54
69405;BME280;57084;52.046;5.632;2022-07-12T06:57:17;102436.06;;;23.79;54.06
69405;BME280;57084;52.046;5.632;2022-07-12T06:59:43;102432.81;;;23.84;54.33
69405;BME280;57084;52.046;5.632;2022-07-12T07:02:08;102442.44;;;23.92;54.26
69405;BME280;57084;52.046;5.632;2022-07-12T07:04:34;102434.03;;;24.00;53.58
69405;BME280;57084;52.046;5.632;2022-07-12T07:06:59;102445.59;;;24.11;53.12
69405;BME280;57084;52.046;5.632;2022-07-12T07:09:24;102441.78;;;24.21;53.03
69405;BME280;57084;52.046;5.632;2022-07-12T07:11:50;102449.41;;;24.30;52.92
69405;BME280;57084;52.046;5.632;2022-07-12T07:14:16;102440.56;;;24.39;52.52
69405;BME280;57084;52.046;5.632;2022-07-12T07:16:41;102441.22;;;24.43;52.60
69405;BME280;57084;52.046;5.632;2022-07-12T07:19:06;102438.03;;;24.44;52.93
69405;BME280;57084;52.046;5.632;2022-07-12T07:21:32;102438.28;;;24.50;52.35
69405;BME280;57084;52.046;5.632;2022-07-12T07:23:57;102441.38;;;24.52;52.62
69405;BME280;57084;52.046;5.632;2022-07-12T07:26:22;102442.94;;;24.53;52.61
69405;BME280;57084;52.046;5.632;2022-07-12T07:28:48;102444.81;;;24.56;52.19
69405;BME280;57084;52.046;5.632;2022-07-12T07:31:36;102440.09;;;24.57;52.53
69405;BME280;57084;52.046;5.632;2022-07-12T07:34:02;102445.06;;;24.62;52.12
69405;BME280;57084;52.046;5.632;2022-07-12T07:36:27;102442.31;;;24.62;52.27
69405;BME280;57084;52.046;5.632;2022-07-12T07:38:53;102435.53;;;24.67;51.92
69405;BME280;57084;52.046;5.632;2022-07-12T07:41:18;102444.03;;;24.72;52.12
69405;BME280;57084;52.046;5.632;2022-07-12T07:43:44;102442.97;;;24.83;52.14
69405;BME280;57084;52.046;5.632;2022-07-12T07:46:09;102442.22;;;24.95;51.88
69405;BME280;57084;52.046;5.632;2022-07-12T07:48:34;102447.41;;;25.06;51.67
69405;BME280;57084;52.046;5.632;2022-07-12T07:51:00;102444.47;;;25.13;51.67
69405;BME280;57084;52.046;5.632;2022-07-12T07:53:25;102435.13;;;25.23;50.85
69405;BME280;57084;52.046;5.632;2022-07-12T07:55:50;102434.91;;;25.31;51.13
69405;BME280;57084;52.046;5.632;2022-07-12T07:58:16;102449.59;;;25.40;50.58
69405;BME280;57084;52.046;5.632;2022-07-12T08:00:41;102440.78;;;25.46;50.94
69405;BME280;57084;52.046;5.632;2022-07-12T08:03:07;102443.41;;;25.49;50.99
69405;BME280;57084;52.046;5.632;2022-07-12T08:05:32;102441.78;;;25.52;50.43
69405;BME280;57084;52.046;5.632;2022-07-12T08:07:57;102442.66;;;25.49;50.81
69405;BME280;57084;52.046;5.632;2022-07-12T08:10:24;102438.59;;;25.53;50.45
69405;BME280;57084;52.046;5.632;2022-07-12T08:12:50;102436.69;;;25.63;50.81
69405;BME280;57084;52.046;5.632;2022-07-12T08:15:15;102440.09;;;25.80;50.36
69405;BME280;57084;52.046;5.632;2022-07-12T08:17:41;102436.56;;;25.93;50.17
69405;BME280;57084;52.046;5.632;2022-07-12T08:20:06;102440.50;;;26.04;49.50
69405;BME280;57084;52.046;5.632;2022-07-12T08:22:32;102438.50;;;26.18;49.30
69405;BME280;57084;52.046;5.632;2022-07-12T08:24:57;102444.59;;;26.26;49.27
69405;BME280;57084;52.046;5.632;2022-07-12T08:27:22;102448.78;;;26.30;49.09
69405;BME280;57084;52.046;5.632;2022-07-12T08:29:48;102454.69;;;26.42;48.30
69405;BME280;57084;52.046;5.632;2022-07-12T08:32:13;102446.28;;;26.45;48.32
69405;BME280;57084;52.046;5.632;2022-07-12T08:34:38;102446.94;;;26.49;48.14
69405;BME280;57084;52.046;5.632;2022-07-12T08:37:04;102453.44;;;26.56;48.35
69405;BME280;57084;52.046;5.632;2022-07-12T08:39:29;102453.31;;;26.59;48.03
69405;BME280;57084;52.046;5.632;2022-07-12T08:41:54;102458.25;;;26.64;47.96
69405;BME280;57084;52.046;5.632;2022-07-12T08:44:20;102463.53;;;26.72;47.62
69405;BME280;57084;52.046;5.632;2022-07-12T08:46:45;102462.09;;;26.80;47.55
69405;BME280;57084;52.046;5.632;2022-07-12T08:49:12;102462.28;;;26.86;47.37
69405;BME280;57084;52.046;5.632;2022-07-12T08:51:38;102462.44;;;26.91;47.10
69405;BME280;57084;52.046;5.632;2022-07-12T08:54:13;102457.31;;;27.03;46.99
69405;BME280;57084;52.046;5.632;2022-07-12T08:56:40;102453.97;;;27.08;46.31
69405;BME280;57084;52.046;5.632;2022-07-12T09:01:40;102450.06;;;27.27;45.73
69405;BME280;57084;52.046;5.632;2022-07-12T09:04:14;102447.47;;;27.33;45.48
69405;BME280;57084;52.046;5.632;2022-07-12T09:06:39;102446.44;;;27.40;45.11
69405;BME280;57084;52.046;5.632;2022-07-12T09:09:05;102453.56;;;27.50;45.05
69405;BME280;57084;52.046;5.632;2022-07-12T09:11:34;102456.84;;;27.58;44.71
69405;BME280;57084;52.046;5.632;2022-07-12T09:14:00;102451.78;;;27.66;44.01
69405;BME280;57084;52.046;5.632;2022-07-12T09:16:27;102443.00;;;27.67;43.40
69405;BME280;57084;52.046;5.632;2022-07-12T09:19:13;102446.75;;;27.73;43.23
69405;BME280;57084;52.046;5.632;2022-07-12T09:21:46;102439.97;;;27.74;42.98
69405;BME280;57084;52.046;5.632;2022-07-12T09:24:11;102443.22;;;27.82;43.02
69405;BME280;57084;52.046;5.632;2022-07-12T09:26:37;102427.88;;;27.90;43.06
69405;BME280;57084;52.046;5.632;2022-07-12T09:29:06;102427.41;;;28.01;42.59
69405;BME280;57084;52.046;5.632;2022-07-12T09:31:48;102425.13;;;28.09;42.26
69405;BME280;57084;52.046;5.632;2022-07-12T09:34:32;102428.38;;;28.17;42.11
69405;BME280;57084;52.046;5.632;2022-07-12T09:37:16;102434.69;;;28.27;42.05
69405;BME280;57084;52.046;5.632;2022-07-12T09:39:44;102433.16;;;28.35;41.14
69405;BME280;57084;52.046;5.632;2022-07-12T09:42:10;102445.00;;;28.45;40.92
69405;BME280;57084;52.046;5.632;2022-07-12T09:44:37;102436.69;;;28.45;40.87
69405;BME280;57084;52.046;5.632;2022-07-12T09:47:03;102428.22;;;28.48;40.59
69405;BME280;57084;52.046;5.632;2022-07-12T09:49:28;102425.59;;;28.54;40.31
69405;BME280;57084;52.046;5.632;2022-07-12T09:51:58;102424.34;;;28.64;40.68
69405;BME280;57084;52.046;5.632;2022-07-12T09:54:27;102427.16;;;28.74;40.35
69405;BME280;57084;52.046;5.632;2022-07-12T09:56:58;102421.59;;;28.74;39.86
69405;BME280;57084;52.046;5.632;2022-07-12T09:59:27;102422.97;;;28.78;40.13
69405;BME280;57084;52.046;5.632;2022-07-12T10:01:54;102422.34;;;28.83;40.25
69405;BME280;57084;52.046;5.632;2022-07-12T10:04:22;102420.34;;;28.84;40.31
69405;BME280;57084;52.046;5.632;2022-07-12T10:06:48;102416.47;;;28.91;39.92
69405;BME280;57084;52.046;5.632;2022-07-12T10:09:16;102420.91;;;28.97;39.22
69405;BME280;57084;52.046;5.632;2022-07-12T10:11:42;102419.81;;;29.04;39.31
69405;BME280;57084;52.046;5.632;2022-07-12T10:14:11;102413.34;;;29.07;38.88
69405;BME280;57084;52.046;5.632;2022-07-12T10:16:38;102409.44;;;29.14;38.60
69405;BME280;57084;52.046;5.632;2022-07-12T10:19:30;102404.19;;;29.25;39.05
69405;BME280;57084;52.046;5.632;2022-07-12T10:21:59;102429.28;;;29.31;38.59
69405;BME280;57084;52.046;5.632;2022-07-12T10:26:57;102427.38;;;29.46;37.75
69405;BME280;57084;52.046;5.632;2022-07-12T10:29:22;102434.00;;;29.49;37.68
69405;BME280;57084;52.046;5.632;2022-07-12T10:31:48;102437.66;;;29.55;37.70
69405;BME280;57084;52.046;5.632;2022-07-12T10:34:24;102445.94;;;29.64;38.45
69405;BME280;57084;52.046;5.632;2022-07-12T10:44:37;102427.81;;;29.78;37.54
69405;BME280;57084;52.046;5.632;2022-07-12T10:47:03;102432.25;;;29.85;37.38
69405;BME280;57084;52.046;5.632;2022-07-12T10:49:32;102431.31;;;29.88;37.50
69405;BME280;57084;52.046;5.632;2022-07-12T10:55:24;102423.69;;;29.98;37.25
69405;BME280;57084;52.046;5.632;2022-07-12T10:57:45;102424.75;;;30.01;37.24
69405;BME280;57084;52.046;5.632;2022-07-12T11:00:13;102431.84;;;30.02;37.50
69405;BME280;57084;52.046;5.632;2022-07-12T11:02:39;102431.50;;;30.09;37.17
69405;BME280;57084;52.046;5.632;2022-07-12T11:05:05;102427.59;;;30.16;37.28
69405;BME280;57084;52.046;5.632;2022-07-12T11:07:30;102428.06;;;30.14;37.38
69405;BME280;57084;52.046;5.632;2022-07-12T11:09:56;102432.38;;;30.15;37.23
69405;BME280;57084;52.046;5.632;2022-07-12T11:12:28;102422.59;;;30.20;37.05
69405;BME280;57084;52.046;5.632;2022-07-12T11:14:55;102420.88;;;30.22;36.86
69405;BME280;57084;52.046;5.632;2022-07-12T11:17:26;102422.53;;;30.29;36.69
69405;BME280;57084;52.046;5.632;2022-07-12T11:20:04;102416.31;;;30.34;36.65
69405;BME280;57084;52.046;5.632;2022-07-12T11:22:30;102419.66;;;30.38;36.56
69405;BME280;57084;52.046;5.632;2022-07-12T11:24:56;102417.00;;;30.44;36.34
69405;BME280;57084;52.046;5.632;2022-07-12T11:27:21;102411.72;;;30.46;36.29
69405;BME280;57084;52.046;5.632;2022-07-12T11:29:59;102420.22;;;30.52;36.24
69405;BME280;57084;52.046;5.632;2022-07-12T11:32:42;102421.53;;;30.56;36.34
69405;BME280;57084;52.046;5.632;2022-07-12T11:35:22;102418.09;;;30.61;36.62
69405;BME280;57084;52.046;5.632;2022-07-12T11:37:52;102420.88;;;30.61;36.34
69405;BME280;57084;52.046;5.632;2022-07-12T11:40:28;102420.09;;;30.61;36.62
69405;BME280;57084;52.046;5.632;2022-07-12T11:43:03;102423.72;;;30.67;36.26
69405;BME280;57084;52.046;5.632;2022-07-12T11:45:31;102430.84;;;30.68;36.05
69405;BME280;57084;52.046;5.632;2022-07-12T11:47:59;102414.63;;;30.67;36.06
69405;BME280;57084;52.046;5.632;2022-07-12T11:50:25;102418.75;;;30.71;35.89
69405;BME280;57084;52.046;5.632;2022-07-12T11:52:50;102420.31;;;30.72;36.42
69405;BME280;57084;52.046;5.632;2022-07-12T11:55:29;102415.00;;;30.74;36.54
69405;BME280;57084;52.046;5.632;2022-07-12T11:58:04;102414.06;;;30.77;35.99
69405;BME280;57084;52.046;5.632;2022-07-12T12:00:30;102410.78;;;30.79;36.03
69405;BME280;57084;52.046;5.632;2022-07-12T12:02:56;102407.53;;;30.81;35.87
69405;BME280;57084;52.046;5.632;2022-07-12T12:05:22;102412.13;;;30.84;35.46
69405;BME280;57084;52.046;5.632;2022-07-12T12:07:48;102402.66;;;30.90;35.74
69405;BME280;57084;52.046;5.632;2022-07-12T12:10:15;102396.09;;;30.93;35.56
69405;BME280;57084;52.046;5.632;2022-07-12T12:12:42;102398.97;;;30.99;35.45
69405;BME280;57084;52.046;5.632;2022-07-12T12:15:09;102389.09;;;30.98;35.65
69405;BME280;57084;52.046;5.632;2022-07-12T12:17:36;102391.19;;;31.03;35.57
69405;BME280;57084;52.046;5.632;2022-07-12T12:20:12;102402.44;;;31.09;35.29
69405;BME280;57084;52.046;5.632;2022-07-12T12:22:38;102395.91;;;31.12;34.78
69405;BME280;57084;52.046;5.632;2022-07-12T12:25:04;102395.72;;;31.16;34.58
69405;BME280;57084;52.046;5.632;2022-07-12T12:27:30;102395.22;;;31.17;34.47
69405;BME280;57084;52.046;5.632;2022-07-12T12:30:06;102396.75;;;31.18;34.16
69405;BME280;57084;52.046;5.632;2022-07-12T12:32:48;102396.28;;;31.20;34.40
69405;BME280;57084;52.046;5.632;2022-07-12T12:35:16;102399.63;;;31.24;34.22
69405;BME280;57084;52.046;5.632;2022-07-12T12:37:53;102395.13;;;31.27;33.78
69405;BME280;57084;52.046;5.632;2022-07-12T12:40:20;102396.84;;;31.24;33.68
69405;BME280;57084;52.046;5.632;2022-07-12T12:42:46;102402.97;;;31.28;33.40
69405;BME280;57084;52.046;5.632;2022-07-12T12:45:23;102404.31;;;31.33;33.12
69405;BME280;57084;52.046;5.632;2022-07-12T12:48:00;102396.25;;;31.35;33.00
69405;BME280;57084;52.046;5.632;2022-07-12T12:50:43;102395.06;;;31.42;33.05
69405;BME280;57084;52.046;5.632;2022-07-12T12:53:12;102398.03;;;31.38;33.29
69405;BME280;57084;52.046;5.632;2022-07-12T12:55:37;102389.78;;;31.44;33.52
69405;BME280;57084;52.046;5.632;2022-07-12T12:58:04;102387.06;;;31.49;33.91
69405;BME280;57084;52.046;5.632;2022-07-12T13:00:29;102382.06;;;31.53;33.41
69405;BME280;57084;52.046;5.632;2022-07-12T13:02:56;102380.81;;;31.54;33.39
69405;BME280;57084;52.046;5.632;2022-07-12T13:05:25;102381.34;;;31.59;33.08